sensor_id;sensor_type;location;lat;lon;timestamp;P1;durP1;ratioP1;P2;durP2;ratioP2
15218;SDS011;15623;53.986;11.676;2022-11-18T00:16:31;25.27;;;17.27;;
15218;SDS011;15623;53.986;11.676;2022-11-18T00:24:57;33.57;;;20.60;;
15218;SDS011;15623;53.986;11.676;2022-11-18T00:27:24;37.23;;;20.57;;
15218;SDS011;15623;53.986;11.676;2022-11-18T00:30:18;41.23;;;23.60;;
15218;SDS011;15623;53.986;11.676;2022-11-18T00:35:51;44.40;;;22.37;;
15218;SDS011;15623;53.986;11.676;2022-11-18T00:38:35;43.27;;;21.67;;
15218;SDS011;15623;53.986;11.676;2022-11-18T00:41:06;41.37;;;23.10;;
15218;SDS011;15623;53.986;11.676;2022-11-18T00:43:38;43.20;;;24.70;;
15218;SDS011;15623;53.986;11.676;2022-11-18T00:46:10;37.17;;;20.70;;
15218;SDS011;15623;53.986;11.676;2022-11-18T00:55:36;37.73;;;20.33;;
15218;SDS011;15623;53.986;11.676;2022-11-18T00:58:20;45.33;;;22.17;;
15218;SDS011;15623;53.986;11.676;2022-11-18T01:50:45;42.03;;;22.73;;
15218;SDS011;15623;53.986;11.676;2022-11-18T01:53:36;36.93;;;21.03;;
15218;SDS011;15623;53.986;11.676;2022-11-18T01:56:09;37.10;;;21.53;;
15218;SDS011;15623;53.986;11.676;2022-11-18T01:58:40;35.63;;;21.27;;
15218;SDS011;15623;53.986;11.676;2022-11-18T02:01:10;36.83;;;21.47;;
15218;SDS011;15623;53.986;11.676;2022-11-18T02:03:38;35.93;;;20.37;;
15218;SDS011;15623;53.986;11.676;2022-11-18T02:06:11;34.90;;;19.93;;
15218;SDS011;15623;53.986;11.676;2022-11-18T02:08:42;36.70;;;20.07;;
15218;SDS011;15623;53.986;11.676;2022-11-18T02:11:11;33.83;;;19.93;;
15218;SDS011;15623;53.986;11.676;2022-11-18T02:13:55;34.30;;;20.03;;
15218;SDS011;15623;53.986;11.676;2022-11-18T02:16:43;30.80;;;19.63;;
15218;SDS011;15623;53.986;11.676;2022-11-18T02:19:25;29.50;;;17.93;;
15218;SDS011;15623;53.986;11.676;2022-11-18T02:22:22;29.33;;;18.60;;
15218;SDS011;15623;53.986;11.676;2022-11-18T02:30:51;29.37;;;17.80;;
15218;SDS011;15623;53.986;11.676;2022-11-18T02:33:35;29.30;;;18.40;;
15218;SDS011;15623;53.986;11.676;2022-11-18T02:36:07;32.87;;;19.57;;
15218;SDS011;15623;53.986;11.676;2022-11-18T02:38:40;29.00;;;18.33;;
15218;SDS011;15623;53.986;11.676;2022-11-18T02:41:14;27.63;;;17.80;;
15218;SDS011;15623;53.986;11.676;2022-11-18T02:43:46;29.07;;;18.67;;
15218;SDS011;15623;53.986;11.676;2022-11-18T02:46:16;28.43;;;17.20;;
15218;SDS011;15623;53.986;11.676;2022-11-18T02:48:47;25.40;;;16.27;;
15218;SDS011;15623;53.986;11.676;2022-11-18T02:54:01;28.77;;;17.50;;
15218;SDS011;15623;53.986;11.676;2022-11-18T02:56:32;25.87;;;16.43;;
15218;SDS011;15623;53.986;11.676;2022-11-18T02:59:03;27.33;;;16.93;;
15218;SDS011;15623;53.986;11.676;2022-11-18T03:04:27;26.03;;;16.63;;
15218;SDS011;15623;53.986;11.676;2022-11-18T03:06:59;26.83;;;17.03;;
15218;SDS011;15623;53.986;11.676;2022-11-18T03:09:32;26.00;;;16.43;;
15218;SDS011;15623;53.986;11.676;2022-11-18T03:12:06;25.13;;;16.57;;
15218;SDS011;15623;53.986;11.676;2022-11-18T03:14:40;25.63;;;17.30;;
15218;SDS011;15623;53.986;11.676;2022-11-18T03:17:12;27.27;;;17.47;;
15218;SDS011;15623;53.986;11.676;2022-11-18T03:20:02;27.40;;;17.30;;
15218;SDS011;15623;53.986;11.676;2022-11-18T03:25:59;26.57;;;16.40;;
15218;SDS011;15623;53.986;11.676;2022-11-18T03:53:10;31.00;;;18.60;;
15218;SDS011;15623;53.986;11.676;2022-11-18T03:56:07;26.97;;;17.10;;
15218;SDS011;15623;53.986;11.676;2022-11-18T03:58:43;30.37;;;17.33;;
15218;SDS011;15623;53.986;11.676;2022-11-18T04:01:16;28.03;;;16.47;;
15218;SDS011;15623;53.986;11.676;2022-11-18T04:03:57;27.27;;;16.30;;
15218;SDS011;15623;53.986;11.676;2022-11-18T04:06:41;24.73;;;16.20;;
15218;SDS011;15623;53.986;11.676;2022-11-18T04:20:46;27.33;;;16.30;;
15218;SDS011;15623;53.986;11.676;2022-11-18T04:23:20;31.03;;;18.90;;
15218;SDS011;15623;53.986;11.676;2022-11-18T04:26:24;34.67;;;19.70;;
15218;SDS011;15623;53.986;11.676;2022-11-18T04:29:16;32.23;;;17.73;;
15218;SDS011;15623;53.986;11.676;2022-11-18T04:32:11;29.70;;;18.53;;
15218;SDS011;15623;53.986;11.676;2022-11-18T04:34:48;30.93;;;19.10;;
15218;SDS011;15623;53.986;11.676;2022-11-18T04:46:04;32.40;;;18.37;;
15218;SDS011;15623;53.986;11.676;2022-11-18T04:48:45;32.10;;;18.87;;
15218;SDS011;15623;53.986;11.676;2022-11-18T04:51:19;28.37;;;17.33;;
15218;SDS011;15623;53.986;11.676;2022-11-18T04:54:13;32.40;;;19.13;;
15218;SDS011;15623;53.986;11.676;2022-11-18T04:57:00;30.20;;;18.03;;
15218;SDS011;15623;53.986;11.676;2022-11-18T05:00:07;30.77;;;17.73;;
15218;SDS011;15623;53.986;11.676;2022-11-18T05:39:45;22.37;;;14.17;;
15218;SDS011;15623;53.986;11.676;2022-11-18T05:43:05;23.67;;;15.80;;
15218;SDS011;15623;53.986;11.676;2022-11-18T05:50:58;22.73;;;16.50;;
15218;SDS011;15623;53.986;11.676;2022-11-18T06:56:15;23.00;;;15.57;;
15218;SDS011;15623;53.986;11.676;2022-11-18T07:05:10;23.13;;;15.00;;
15218;SDS011;15623;53.986;11.676;2022-11-18T07:07:39;21.20;;;14.37;;
15218;SDS011;15623;53.986;11.676;2022-11-18T07:10:11;20.17;;;14.73;;
15218;SDS011;15623;53.986;11.676;2022-11-18T07:12:53;22.73;;;15.50;;
15218;SDS011;15623;53.986;11.676;2022-11-18T07:15:38;21.93;;;15.07;;
15218;SDS011;15623;53.986;11.676;2022-11-18T07:18:22;20.37;;;15.37;;
15218;SDS011;15623;53.986;11.676;2022-11-18T07:21:04;19.70;;;14.13;;
15218;SDS011;15623;53.986;11.676;2022-11-18T07:41:54;15.43;;;12.93;;
15218;SDS011;15623;53.986;11.676;2022-11-18T07:47:26;15.27;;;13.10;;
15218;SDS011;15623;53.986;11.676;2022-11-18T08:42:02;10.73;;;9.63;;
15218;SDS011;15623;53.986;11.676;2022-11-18T08:45:04;10.37;;;8.60;;
15218;SDS011;15623;53.986;11.676;2022-11-18T08:50:48;9.57;;;8.67;;
15218;SDS011;15623;53.986;11.676;2022-11-18T08:54:00;9.80;;;8.87;;
15218;SDS011;15623;53.986;11.676;2022-11-18T09:35:15;4.80;;;4.50;;
15218;SDS011;15623;53.986;11.676;2022-11-18T09:37:43;4.70;;;4.30;;
15218;SDS011;15623;53.986;11.676;2022-11-18T09:40:12;4.70;;;4.30;;
15218;SDS011;15623;53.986;11.676;2022-11-18T09:42:48;4.67;;;4.33;;
15218;SDS011;15623;53.986;11.676;2022-11-18T09:45:20;4.20;;;3.90;;
15218;SDS011;15623;53.986;11.676;2022-11-18T09:47:49;4.13;;;3.73;;
15218;SDS011;15623;53.986;11.676;2022-11-18T09:50:20;3.60;;;3.40;;
15218;SDS011;15623;53.986;11.676;2022-11-18T09:52:49;3.43;;;3.17;;
15218;SDS011;15623;53.986;11.676;2022-11-18T09:55:20;3.90;;;3.60;;
15218;SDS011;15623;53.986;11.676;2022-11-18T09:57:50;3.60;;;3.30;;
15218;SDS011;15623;53.986;11.676;2022-11-18T10:00:18;3.20;;;3.00;;
15218;SDS011;15623;53.986;11.676;2022-11-18T10:02:55;3.43;;;3.23;;
15218;SDS011;15623;53.986;11.676;2022-11-18T10:05:26;3.00;;;2.80;;
15218;SDS011;15623;53.986;11.676;2022-11-18T10:08:00;2.40;;;2.23;;
15218;SDS011;15623;53.986;11.676;2022-11-18T10:10:29;2.33;;;2.13;;
15218;SDS011;15623;53.986;11.676;2022-11-18T10:13:00;2.30;;;2.20;;
15218;SDS011;15623;53.986;11.676;2022-11-18T10:15:32;3.07;;;2.20;;
15218;SDS011;15623;53.986;11.676;2022-11-18T10:18:04;2.80;;;2.60;;
15218;SDS011;15623;53.986;11.676;2022-11-18T10:20:41;2.07;;;1.97;;
15218;SDS011;15623;53.986;11.676;2022-11-18T10:23:14;2.20;;;2.00;;
15218;SDS011;15623;53.986;11.676;2022-11-18T10:25:43;2.30;;;2.10;;
15218;SDS011;15623;53.986;11.676;2022-11-18T10:28:20;2.27;;;2.07;;
15218;SDS011;15623;53.986;11.676;2022-11-18T10:31:07;2.30;;;2.20;;
15218;SDS011;15623;53.986;11.676;2022-11-18T10:33:35;2.30;;;2.20;;
15218;SDS011;15623;53.986;11.676;2022-11-18T10:36:10;2.20;;;2.10;;
15218;SDS011;15623;53.986;11.676;2022-11-18T10:38:38;2.40;;;2.30;;
15218;SDS011;15623;53.986;11.676;2022-11-18T10:41:08;2.53;;;2.33;;
15218;SDS011;15623;53.986;11.676;2022-11-18T10:43:41;2.37;;;2.17;;
15218;SDS011;15623;53.986;11.676;2022-11-18T10:46:14;2.40;;;2.30;;
15218;SDS011;15623;53.986;11.676;2022-11-18T10:48:41;2.47;;;2.30;;
15218;SDS011;15623;53.986;11.676;2022-11-18T10:51:20;2.40;;;2.30;;
15218;SDS011;15623;53.986;11.676;2022-11-18T10:53:48;2.40;;;2.20;;
15218;SDS011;15623;53.986;11.676;2022-11-18T10:56:16;2.00;;;1.90;;
15218;SDS011;15623;53.986;11.676;2022-11-18T10:58:44;2.10;;;2.00;;
15218;SDS011;15623;53.986;11.676;2022-11-18T11:01:18;2.20;;;2.10;;
15218;SDS011;15623;53.986;11.676;2022-11-18T11:03:55;2.33;;;2.13;;
15218;SDS011;15623;53.986;11.676;2022-11-18T11:06:30;2.30;;;2.10;;
15218;SDS011;15623;53.986;11.676;2022-11-18T11:09:00;2.20;;;2.10;;
15218;SDS011;15623;53.986;11.676;2022-11-18T11:11:28;2.37;;;2.13;;
15218;SDS011;15623;53.986;11.676;2022-11-18T11:13:59;2.20;;;2.10;;
15218;SDS011;15623;53.986;11.676;2022-11-18T11:16:28;2.60;;;2.40;;
15218;SDS011;15623;53.986;11.676;2022-11-18T11:18:57;2.80;;;2.40;;
15218;SDS011;15623;53.986;11.676;2022-11-18T11:21:25;2.77;;;2.53;;
15218;SDS011;15623;53.986;11.676;2022-11-18T11:23:54;2.40;;;2.20;;
15218;SDS011;15623;53.986;11.676;2022-11-18T11:26:25;2.33;;;2.23;;
15218;SDS011;15623;53.986;11.676;2022-11-18T11:28:57;2.20;;;2.10;;
15218;SDS011;15623;53.986;11.676;2022-11-18T11:31:32;2.30;;;2.20;;
15218;SDS011;15623;53.986;11.676;2022-11-18T11:34:03;2.10;;;2.00;;
15218;SDS011;15623;53.986;11.676;2022-11-18T11:36:35;2.27;;;2.17;;
15218;SDS011;15623;53.986;11.676;2022-11-18T11:39:17;2.20;;;2.00;;
15218;SDS011;15623;53.986;11.676;2022-11-18T11:41:52;2.00;;;1.90;;
15218;SDS011;15623;53.986;11.676;2022-11-18T11:44:23;1.87;;;1.77;;
15218;SDS011;15623;53.986;11.676;2022-11-18T11:46:55;1.87;;;1.70;;
15218;SDS011;15623;53.986;11.676;2022-11-18T11:49:46;2.00;;;1.80;;
15218;SDS011;15623;53.986;11.676;2022-11-18T11:52:16;2.20;;;2.00;;
15218;SDS011;15623;53.986;11.676;2022-11-18T11:54:50;1.80;;;1.70;;
15218;SDS011;15623;53.986;11.676;2022-11-18T11:57:25;1.77;;;1.67;;
15218;SDS011;15623;53.986;11.676;2022-11-18T11:59:57;2.40;;;2.20;;
15218;SDS011;15623;53.986;11.676;2022-11-18T12:05:16;1.97;;;1.87;;
15218;SDS011;15623;53.986;11.676;2022-11-18T12:07:46;1.87;;;1.73;;
15218;SDS011;15623;53.986;11.676;2022-11-18T12:13:08;2.10;;;2.00;;
15218;SDS011;15623;53.986;11.676;2022-11-18T12:15:43;2.00;;;1.90;;
15218;SDS011;15623;53.986;11.676;2022-11-18T12:18:15;2.03;;;1.90;;
15218;SDS011;15623;53.986;11.676;2022-11-18T12:20:46;2.20;;;2.10;;
15218;SDS011;15623;53.986;11.676;2022-11-18T12:23:14;1.90;;;1.80;;
15218;SDS011;15623;53.986;11.676;2022-11-18T12:25:48;2.10;;;2.00;;
15218;SDS011;15623;53.986;11.676;2022-11-18T12:28:27;1.87;;;1.77;;
15218;SDS011;15623;53.986;11.676;2022-11-18T12:33:53;2.03;;;1.70;;
15218;SDS011;15623;53.986;11.676;2022-11-18T12:36:35;1.83;;;1.73;;
15218;SDS011;15623;53.986;11.676;2022-11-18T12:41:53;1.83;;;1.73;;
15218;SDS011;15623;53.986;11.676;2022-11-18T12:44:43;1.77;;;1.67;;
15218;SDS011;15623;53.986;11.676;2022-11-18T12:47:16;3.70;;;1.90;;
15218;SDS011;15623;53.986;11.676;2022-11-18T12:50:08;2.13;;;2.00;;
15218;SDS011;15623;53.986;11.676;2022-11-18T12:52:53;1.87;;;1.77;;
15218;SDS011;15623;53.986;11.676;2022-11-18T12:55:21;2.27;;;1.70;;
15218;SDS011;15623;53.986;11.676;2022-11-18T12:57:50;2.03;;;1.93;;
15218;SDS011;15623;53.986;11.676;2022-11-18T13:00:30;2.50;;;2.03;;
15218;SDS011;15623;53.986;11.676;2022-11-18T13:03:21;1.93;;;1.83;;
15218;SDS011;15623;53.986;11.676;2022-11-18T13:06:06;1.77;;;1.67;;
15218;SDS011;15623;53.986;11.676;2022-11-18T13:08:38;2.30;;;2.10;;
15218;SDS011;15623;53.986;11.676;2022-11-18T13:11:26;2.10;;;1.90;;
15218;SDS011;15623;53.986;11.676;2022-11-18T13:14:28;1.97;;;1.87;;
15218;SDS011;15623;53.986;11.676;2022-11-18T13:17:32;2.10;;;1.90;;
15218;SDS011;15623;53.986;11.676;2022-11-18T13:20:35;1.77;;;1.67;;
15218;SDS011;15623;53.986;11.676;2022-11-18T13:29:24;1.70;;;1.60;;
15218;SDS011;15623;53.986;11.676;2022-11-18T13:32:07;1.90;;;1.67;;
15218;SDS011;15623;53.986;11.676;2022-11-18T13:37:54;1.53;;;1.43;;
15218;SDS011;15623;53.986;11.676;2022-11-18T13:40:28;1.70;;;1.60;;
15218;SDS011;15623;53.986;11.676;2022-11-18T13:42:57;1.60;;;1.50;;
15218;SDS011;15623;53.986;11.676;2022-11-18T13:45:26;1.40;;;1.30;;
15218;SDS011;15623;53.986;11.676;2022-11-18T13:48:04;2.50;;;1.87;;
15218;SDS011;15623;53.986;11.676;2022-11-18T13:50:35;1.73;;;1.63;;
15218;SDS011;15623;53.986;11.676;2022-11-18T13:53:10;2.23;;;1.37;;
15218;SDS011;15623;53.986;11.676;2022-11-18T13:55:42;2.03;;;1.40;;
15218;SDS011;15623;53.986;11.676;2022-11-18T13:58:21;2.90;;;1.47;;
15218;SDS011;15623;53.986;11.676;2022-11-18T14:00:53;7.43;;;1.60;;
15218;SDS011;15623;53.986;11.676;2022-11-18T14:03:27;1.80;;;1.70;;
15218;SDS011;15623;53.986;11.676;2022-11-18T14:06:10;1.60;;;1.50;;
15218;SDS011;15623;53.986;11.676;2022-11-18T14:08:41;1.50;;;1.40;;
15218;SDS011;15623;53.986;11.676;2022-11-18T14:11:11;1.60;;;1.50;;
15218;SDS011;15623;53.986;11.676;2022-11-18T14:13:53;1.80;;;1.70;;
15218;SDS011;15623;53.986;11.676;2022-11-18T14:16:37;1.73;;;1.63;;
15218;SDS011;15623;53.986;11.676;2022-11-18T14:19:09;2.50;;;1.50;;
15218;SDS011;15623;53.986;11.676;2022-11-18T14:21:40;1.70;;;1.60;;
15218;SDS011;15623;53.986;11.676;2022-11-18T14:26:56;1.47;;;1.30;;
15218;SDS011;15623;53.986;11.676;2022-11-18T14:29:24;1.70;;;1.60;;
15218;SDS011;15623;53.986;11.676;2022-11-18T14:32:03;1.90;;;1.80;;
15218;SDS011;15623;53.986;11.676;2022-11-18T14:34:30;1.50;;;1.40;;
15218;SDS011;15623;53.986;11.676;2022-11-18T14:36:58;2.00;;;1.77;;
15218;SDS011;15623;53.986;11.676;2022-11-18T14:39:26;1.73;;;1.63;;
15218;SDS011;15623;53.986;11.676;2022-11-18T14:41:56;1.70;;;1.60;;
15218;SDS011;15623;53.986;11.676;2022-11-18T14:44:29;1.80;;;1.70;;
15218;SDS011;15623;53.986;11.676;2022-11-18T14:46:58;3.83;;;1.73;;
15218;SDS011;15623;53.986;11.676;2022-11-18T14:49:26;2.60;;;1.87;;
15218;SDS011;15623;53.986;11.676;2022-11-18T14:51:56;1.77;;;1.67;;
15218;SDS011;15623;53.986;11.676;2022-11-18T14:54:26;2.93;;;1.87;;
15218;SDS011;15623;53.986;11.676;2022-11-18T14:56:57;4.77;;;1.83;;
15218;SDS011;15623;53.986;11.676;2022-11-18T14:59:26;1.70;;;1.60;;
15218;SDS011;15623;53.986;11.676;2022-11-18T15:01:55;1.80;;;1.70;;
15218;SDS011;15623;53.986;11.676;2022-11-18T15:04:23;2.10;;;2.00;;
15218;SDS011;15623;53.986;11.676;2022-11-18T15:06:51;1.73;;;1.63;;
15218;SDS011;15623;53.986;11.676;2022-11-18T15:09:19;1.70;;;1.60;;
15218;SDS011;15623;53.986;11.676;2022-11-18T15:11:47;1.83;;;1.73;;
15218;SDS011;15623;53.986;11.676;2022-11-18T15:14:16;1.97;;;1.87;;
15218;SDS011;15623;53.986;11.676;2022-11-18T15:16:43;2.70;;;2.50;;
15218;SDS011;15623;53.986;11.676;2022-11-18T15:19:13;2.30;;;2.20;;
15218;SDS011;15623;53.986;11.676;2022-11-18T15:21:40;2.17;;;2.07;;
15218;SDS011;15623;53.986;11.676;2022-11-18T15:24:10;2.30;;;2.10;;
15218;SDS011;15623;53.986;11.676;2022-11-18T15:26:39;2.90;;;2.13;;
15218;SDS011;15623;53.986;11.676;2022-11-18T15:29:17;2.33;;;2.13;;
15218;SDS011;15623;53.986;11.676;2022-11-18T15:31:47;2.57;;;2.37;;
15218;SDS011;15623;53.986;11.676;2022-11-18T15:34:15;6.80;;;5.10;;
15218;SDS011;15623;53.986;11.676;2022-11-18T15:36:44;11.77;;;7.10;;
15218;SDS011;15623;53.986;11.676;2022-11-18T15:39:11;8.23;;;6.80;;
15218;SDS011;15623;53.986;11.676;2022-11-18T15:41:40;5.83;;;5.10;;
15218;SDS011;15623;53.986;11.676;2022-11-18T15:44:10;4.57;;;4.00;;
15218;SDS011;15623;53.986;11.676;2022-11-18T15:46:38;4.20;;;3.80;;
15218;SDS011;15623;53.986;11.676;2022-11-18T15:49:09;4.40;;;4.00;;
15218;SDS011;15623;53.986;11.676;2022-11-18T15:51:38;4.17;;;3.80;;
15218;SDS011;15623;53.986;11.676;2022-11-18T15:54:06;4.00;;;3.70;;
15218;SDS011;15623;53.986;11.676;2022-11-18T15:56:33;4.20;;;3.80;;
15218;SDS011;15623;53.986;11.676;2022-11-18T15:59:03;4.03;;;3.63;;
15218;SDS011;15623;53.986;11.676;2022-11-18T16:01:31;3.87;;;3.53;;
15218;SDS011;15623;53.986;11.676;2022-11-18T16:03:59;4.70;;;3.60;;
15218;SDS011;15623;53.986;11.676;2022-11-18T16:06:28;3.00;;;2.80;;
15218;SDS011;15623;53.986;11.676;2022-11-18T16:08:56;3.43;;;3.07;;
15218;SDS011;15623;53.986;11.676;2022-11-18T16:11:24;2.80;;;2.60;;
15218;SDS011;15623;53.986;11.676;2022-11-18T16:14:09;3.87;;;2.90;;
15218;SDS011;15623;53.986;11.676;2022-11-18T16:16:37;3.10;;;2.80;;
15218;SDS011;15623;53.986;11.676;2022-11-18T16:19:06;3.60;;;3.30;;
15218;SDS011;15623;53.986;11.676;2022-11-18T16:21:36;4.47;;;4.07;;
15218;SDS011;15623;53.986;11.676;2022-11-18T16:24:06;4.80;;;4.30;;
15218;SDS011;15623;53.986;11.676;2022-11-18T16:26:34;5.60;;;4.07;;
15218;SDS011;15623;53.986;11.676;2022-11-18T16:29:03;5.97;;;5.40;;
15218;SDS011;15623;53.986;11.676;2022-11-18T16:31:30;5.80;;;5.30;;
15218;SDS011;15623;53.986;11.676;2022-11-18T16:34:08;5.40;;;4.90;;
15218;SDS011;15623;53.986;11.676;2022-11-18T16:36:39;5.20;;;4.73;;
15218;SDS011;15623;53.986;11.676;2022-11-18T16:39:08;5.93;;;5.43;;
15218;SDS011;15623;53.986;11.676;2022-11-18T16:41:36;26.03;;;15.53;;
15218;SDS011;15623;53.986;11.676;2022-11-18T16:44:04;42.87;;;22.57;;
15218;SDS011;15623;53.986;11.676;2022-11-18T16:46:34;60.93;;;26.43;;
15218;SDS011;15623;53.986;11.676;2022-11-18T16:49:03;45.90;;;21.60;;
15218;SDS011;15623;53.986;11.676;2022-11-18T16:51:32;10.50;;;8.37;;
15218;SDS011;15623;53.986;11.676;2022-11-18T16:54:02;7.27;;;6.57;;
15218;SDS011;15623;53.986;11.676;2022-11-18T16:56:31;34.77;;;17.00;;
15218;SDS011;15623;53.986;11.676;2022-11-18T16:58:59;12.93;;;11.17;;
15218;SDS011;15623;53.986;11.676;2022-11-18T17:01:27;7.77;;;7.17;;
15218;SDS011;15623;53.986;11.676;2022-11-18T17:03:55;16.63;;;13.20;;
15218;SDS011;15623;53.986;11.676;2022-11-18T17:06:24;8.63;;;7.77;;
15218;SDS011;15623;53.986;11.676;2022-11-18T17:08:52;4.10;;;3.80;;
15218;SDS011;15623;53.986;11.676;2022-11-18T17:11:21;4.20;;;3.80;;
15218;SDS011;15623;53.986;11.676;2022-11-18T17:13:50;3.83;;;3.53;;
15218;SDS011;15623;53.986;11.676;2022-11-18T17:16:23;6.63;;;3.93;;
15218;SDS011;15623;53.986;11.676;2022-11-18T17:18:58;4.70;;;4.20;;
15218;SDS011;15623;53.986;11.676;2022-11-18T17:21:27;5.23;;;4.73;;
15218;SDS011;15623;53.986;11.676;2022-11-18T17:23:55;4.43;;;4.03;;
15218;SDS011;15623;53.986;11.676;2022-11-18T17:26:26;4.03;;;3.73;;
15218;SDS011;15623;53.986;11.676;2022-11-18T17:28:54;4.20;;;3.77;;
15218;SDS011;15623;53.986;11.676;2022-11-18T17:31:22;4.20;;;3.80;;
15218;SDS011;15623;53.986;11.676;2022-11-18T17:33:50;3.27;;;2.97;;
15218;SDS011;15623;53.986;11.676;2022-11-18T17:36:18;3.60;;;3.30;;
15218;SDS011;15623;53.986;11.676;2022-11-18T17:38:47;5.30;;;3.67;;
15218;SDS011;15623;53.986;11.676;2022-11-18T17:41:15;6.33;;;3.70;;
15218;SDS011;15623;53.986;11.676;2022-11-18T17:44:00;4.50;;;4.00;;
15218;SDS011;15623;53.986;11.676;2022-11-18T17:46:28;5.07;;;4.33;;
15218;SDS011;15623;53.986;11.676;2022-11-18T17:48:56;4.57;;;4.17;;
15218;SDS011;15623;53.986;11.676;2022-11-18T17:51:24;4.20;;;3.80;;
15218;SDS011;15623;53.986;11.676;2022-11-18T17:53:52;4.80;;;4.40;;
15218;SDS011;15623;53.986;11.676;2022-11-18T17:56:20;5.47;;;4.17;;
15218;SDS011;15623;53.986;11.676;2022-11-18T17:58:48;4.40;;;4.00;;
15218;SDS011;15623;53.986;11.676;2022-11-18T18:01:19;5.00;;;4.20;;
15218;SDS011;15623;53.986;11.676;2022-11-18T18:03:46;4.67;;;4.20;;
15218;SDS011;15623;53.986;11.676;2022-11-18T18:06:23;5.53;;;4.80;;
15218;SDS011;15623;53.986;11.676;2022-11-18T18:08:53;6.30;;;4.90;;
15218;SDS011;15623;53.986;11.676;2022-11-18T18:11:21;7.73;;;6.30;;
15218;SDS011;15623;53.986;11.676;2022-11-18T18:13:51;7.73;;;5.90;;
15218;SDS011;15623;53.986;11.676;2022-11-18T18:16:37;85.10;;;35.53;;
15218;SDS011;15623;53.986;11.676;2022-11-18T18:19:06;33.00;;;17.27;;
15218;SDS011;15623;53.986;11.676;2022-11-18T18:21:34;18.83;;;14.03;;
15218;SDS011;15623;53.986;11.676;2022-11-18T18:24:01;6.03;;;5.53;;
15218;SDS011;15623;53.986;11.676;2022-11-18T18:26:29;7.77;;;6.27;;
15218;SDS011;15623;53.986;11.676;2022-11-18T18:28:57;5.73;;;5.23;;
15218;SDS011;15623;53.986;11.676;2022-11-18T18:31:25;7.27;;;6.30;;
15218;SDS011;15623;53.986;11.676;2022-11-18T18:33:54;5.87;;;5.07;;
15218;SDS011;15623;53.986;11.676;2022-11-18T18:36:22;8.00;;;7.20;;
15218;SDS011;15623;53.986;11.676;2022-11-18T18:38:49;5.83;;;4.73;;
15218;SDS011;15623;53.986;11.676;2022-11-18T18:41:17;5.17;;;4.77;;
15218;SDS011;15623;53.986;11.676;2022-11-18T18:43:45;5.60;;;5.10;;
15218;SDS011;15623;53.986;11.676;2022-11-18T18:46:13;5.70;;;5.20;;
15218;SDS011;15623;53.986;11.676;2022-11-18T18:49:02;6.67;;;6.07;;
15218;SDS011;15623;53.986;11.676;2022-11-18T18:51:31;6.57;;;5.77;;
15218;SDS011;15623;53.986;11.676;2022-11-18T18:53:58;7.53;;;5.80;;
15218;SDS011;15623;53.986;11.676;2022-11-18T18:56:26;6.33;;;5.83;;
15218;SDS011;15623;53.986;11.676;2022-11-18T18:58:54;10.03;;;9.13;;
15218;SDS011;15623;53.986;11.676;2022-11-18T19:01:22;9.40;;;8.43;;
15218;SDS011;15623;53.986;11.676;2022-11-18T19:03:52;7.63;;;7.10;;
15218;SDS011;15623;53.986;11.676;2022-11-18T19:06:22;6.30;;;5.70;;
15218;SDS011;15623;53.986;11.676;2022-11-18T19:08:51;5.70;;;5.20;;
15218;SDS011;15623;53.986;11.676;2022-11-18T19:11:18;5.40;;;4.90;;
15218;SDS011;15623;53.986;11.676;2022-11-18T19:14:04;4.20;;;3.80;;
15218;SDS011;15623;53.986;11.676;2022-11-18T19:16:32;3.67;;;3.37;;
15218;SDS011;15623;53.986;11.676;2022-11-18T19:19:02;3.67;;;3.37;;
15218;SDS011;15623;53.986;11.676;2022-11-18T19:21:31;3.97;;;3.67;;
15218;SDS011;15623;53.986;11.676;2022-11-18T19:23:59;6.73;;;6.23;;
15218;SDS011;15623;53.986;11.676;2022-11-18T19:26:27;6.67;;;6.07;;
15218;SDS011;15623;53.986;11.676;2022-11-18T19:28:55;13.83;;;12.10;;
15218;SDS011;15623;53.986;11.676;2022-11-18T19:31:22;3.30;;;3.00;;
15218;SDS011;15623;53.986;11.676;2022-11-18T19:33:50;4.40;;;3.17;;
15218;SDS011;15623;53.986;11.676;2022-11-18T19:36:17;3.30;;;3.00;;
15218;SDS011;15623;53.986;11.676;2022-11-18T19:38:49;3.80;;;3.50;;
15218;SDS011;15623;53.986;11.676;2022-11-18T19:41:16;3.50;;;3.20;;
15218;SDS011;15623;53.986;11.676;2022-11-18T19:43:44;3.80;;;3.40;;
15218;SDS011;15623;53.986;11.676;2022-11-18T19:46:11;4.50;;;3.47;;
15218;SDS011;15623;53.986;11.676;2022-11-18T19:48:40;24.33;;;10.77;;
15218;SDS011;15623;53.986;11.676;2022-11-18T19:51:08;7.70;;;5.33;;
15218;SDS011;15623;53.986;11.676;2022-11-18T19:53:36;4.53;;;3.53;;
15218;SDS011;15623;53.986;11.676;2022-11-18T19:56:06;4.33;;;3.93;;
15218;SDS011;15623;53.986;11.676;2022-11-18T19:58:35;6.90;;;4.40;;
15218;SDS011;15623;53.986;11.676;2022-11-18T20:01:07;7.47;;;5.77;;
15218;SDS011;15623;53.986;11.676;2022-11-18T20:03:36;7.60;;;5.87;;
15218;SDS011;15623;53.986;11.676;2022-11-18T20:06:04;8.63;;;6.73;;
15218;SDS011;15623;53.986;11.676;2022-11-18T20:08:33;11.53;;;9.73;;
15218;SDS011;15623;53.986;11.676;2022-11-18T20:11:02;10.70;;;8.97;;
15218;SDS011;15623;53.986;11.676;2022-11-18T20:13:31;7.03;;;6.33;;
15218;SDS011;15623;53.986;11.676;2022-11-18T20:15:59;7.07;;;5.83;;
15218;SDS011;15623;53.986;11.676;2022-11-18T20:18:28;7.20;;;6.60;;
15218;SDS011;15623;53.986;11.676;2022-11-18T20:20:56;7.13;;;6.53;;
15218;SDS011;15623;53.986;11.676;2022-11-18T20:26:35;5.47;;;4.80;;
15218;SDS011;15623;53.986;11.676;2022-11-18T20:29:05;5.33;;;4.93;;
15218;SDS011;15623;53.986;11.676;2022-11-18T20:31:33;5.07;;;4.50;;
15218;SDS011;15623;53.986;11.676;2022-11-18T20:34:01;6.83;;;5.10;;
15218;SDS011;15623;53.986;11.676;2022-11-18T20:36:29;5.67;;;5.07;;
15218;SDS011;15623;53.986;11.676;2022-11-18T20:38:58;5.87;;;5.37;;
15218;SDS011;15623;53.986;11.676;2022-11-18T20:41:25;6.10;;;5.40;;
15218;SDS011;15623;53.986;11.676;2022-11-18T20:43:56;6.50;;;5.60;;
15218;SDS011;15623;53.986;11.676;2022-11-18T20:46:25;7.37;;;5.80;;
15218;SDS011;15623;53.986;11.676;2022-11-18T20:48:52;6.27;;;5.30;;
15218;SDS011;15623;53.986;11.676;2022-11-18T20:51:21;5.87;;;5.27;;
15218;SDS011;15623;53.986;11.676;2022-11-18T20:53:48;7.40;;;5.43;;
15218;SDS011;15623;53.986;11.676;2022-11-18T20:56:19;6.30;;;5.40;;
15218;SDS011;15623;53.986;11.676;2022-11-18T20:58:47;6.20;;;5.50;;
15218;SDS011;15623;53.986;11.676;2022-11-18T21:01:15;6.53;;;5.93;;
15218;SDS011;15623;53.986;11.676;2022-11-18T21:03:46;8.23;;;6.30;;
15218;SDS011;15623;53.986;11.676;2022-11-18T21:06:17;6.13;;;5.33;;
15218;SDS011;15623;53.986;11.676;2022-11-18T21:08:45;6.23;;;5.50;;
15218;SDS011;15623;53.986;11.676;2022-11-18T21:11:12;6.43;;;5.83;;
15218;SDS011;15623;53.986;11.676;2022-11-18T21:13:40;6.40;;;5.80;;
15218;SDS011;15623;53.986;11.676;2022-11-18T21:16:26;4.57;;;4.17;;
15218;SDS011;15623;53.986;11.676;2022-11-18T21:18:55;5.57;;;4.70;;
15218;SDS011;15623;53.986;11.676;2022-11-18T21:21:24;6.23;;;4.37;;
15218;SDS011;15623;53.986;11.676;2022-11-18T21:24:08;4.60;;;4.03;;
15218;SDS011;15623;53.986;11.676;2022-11-18T21:26:36;4.93;;;4.37;;
15218;SDS011;15623;53.986;11.676;2022-11-18T21:29:04;4.37;;;4.07;;
15218;SDS011;15623;53.986;11.676;2022-11-18T21:31:32;5.37;;;4.47;;
15218;SDS011;15623;53.986;11.676;2022-11-18T21:34:01;5.67;;;4.63;;
15218;SDS011;15623;53.986;11.676;2022-11-18T21:36:28;5.07;;;4.53;;